Time;durP1;ratioP1;P1;durP2;ratioP2;P2;SDS_P1;SDS_P2;PMS_P1;PMS_P2;Temp;Humidity;BMP_temperature;BMP_pressure;BME280_temperature;BME280_humidity;BME280_pressure;Samples;Min_cycle;Max_cycle;Signal;HPM_P1;HPM_P2
2022/10/27 00:01:29;;;;;;;;;31.40;29.00;;;;;13.85;60.29;99557.44;6079802;28;96348;-62
2022/10/27 00:04:32;;;;;;;;;29.40;29.00;;;;;13.83;60.66;99569.53;6079870;28;96859;-61
2022/10/27 00:07:36;;;;;;;;;27.00;25.40;;;;;13.76;60.85;99577.75;6082702;28;96591;-62
2022/10/27 00:10:41;;;;;;;;;29.40;27.00;;;;;13.77;60.37;99573.19;6075842;28;96780;-61
2022/10/27 00:13:46;;;;;;;;;29.50;28.00;;;;;13.77;60.09;99578.59;6095271;28;96417;-62
2022/10/27 00:16:53;;;;;;;;;36.00;30.00;;;;;13.73;59.75;99580.09;6095191;28;96453;-62
2022/10/27 00:19:57;;;;;;;;;33.00;30.20;;;;;13.64;59.94;99578.72;6097159;28;96539;-61
2022/10/27 00:23:00;;;;;;;;;30.20;27.60;;;;;13.58;60.26;99585.88;6095846;28;96626;-62
2022/10/27 00:26:05;;;;;;;;;27.50;24.00;;;;;13.57;60.62;99584.22;6096148;28;97081;-62
2022/10/27 00:29:10;;;;;;;;;29.75;28.25;;;;;13.56;60.57;99590.69;6094965;28;96580;-61
2022/10/27 00:32:13;;;;;;;;;27.00;24.75;;;;;13.59;61.11;99589.41;6093317;28;96553;-61
2022/10/27 00:35:16;;;;;;;;;28.00;25.20;;;;;13.64;61.44;99590.38;6092602;28;96347;-61
2022/10/27 00:38:21;;;;;;;;;29.20;26.80;;;;;13.65;61.07;99592.06;6092099;28;96561;-62
2022/10/27 00:41:28;;;;;;;;;25.50;24.00;;;;;13.70;62.04;99591.38;6092563;28;96421;-62
2022/10/27 00:44:35;;;;;;;;;25.00;24.00;;;;;13.77;62.18;99589.44;6094596;28;96856;-62
2022/10/27 00:47:40;;;;;;;;;23.40;22.00;;;;;13.80;61.91;99589.81;6094576;28;96277;-61
2022/10/27 00:50:44;;;;;;;;;25.75;23.00;;;;;13.86;61.88;99593.50;6094594;28;96477;-62
2022/10/27 00:53:49;;;;;;;;;27.00;25.00;;;;;13.88;61.66;99581.38;6075679;28;98362;-62
2022/10/27 00:56:54;;;;;;;;;21.60;21.00;;;;;13.91;61.50;99588.22;6094143;28;96559;-62
2022/10/27 01:00:02;;;;;;;;;23.00;21.00;;;;;13.90;61.61;99583.84;6093500;28;96466;-62
2022/10/27 01:03:07;;;;;;;;;22.25;20.75;;;;;13.91;61.28;99585.53;6093950;28;96394;-62
2022/10/27 01:06:12;;;;;;;;;24.40;21.60;;;;;13.90;61.54;99586.56;6093507;28;96582;-62
2022/10/27 01:09:15;;;;;;;;;22.60;21.60;;;;;13.88;61.10;99586.78;6082587;28;96415;-61
2022/10/27 01:12:19;;;;;;;;;24.00;22.00;;;;;13.87;60.82;99593.28;6093965;28;96370;-62
2022/10/27 01:15:32;;;;;;;;;25.50;23.25;;;;;13.90;61.04;99594.69;6092448;28;96474;-66
2022/10/27 01:18:47;;;;;;;;;22.60;21.00;;;;;13.75;60.83;99559.00;6090269;28;96487;-62
2022/10/27 01:22:05;;;;;;;;;18.60;17.20;;;;;13.98;61.23;99588.13;6093075;28;96433;-62
2022/10/27 01:25:30;;;;;;;;;17.20;16.20;;;;;14.08;62.46;99591.16;6093758;28;96803;-62
2022/10/27 01:29:11;;;;;;;;;15.00;15.00;;;;;13.99;63.16;99563.53;6090677;28;98535;-61
2022/10/27 01:32:26;;;;;;;;;21.40;20.00;;;;;14.30;62.95;99586.91;6084854;28;96395;-61
2022/10/27 01:35:36;;;;;;;;;19.40;19.00;;;;;14.37;62.85;99587.66;6093766;28;96314;-62
2022/10/27 01:38:47;;;;;;;;;18.60;18.00;;;;;14.35;62.58;99587.06;6092722;28;96312;-61
2022/10/27 01:41:57;;;;;;;;;19.80;18.80;;;;;14.32;62.68;99596.47;6092715;28;96267;-62
2022/10/27 01:45:04;;;;;;;;;21.00;18.00;;;;;14.27;63.01;99576.50;6076182;28;96470;-62
2022/10/27 01:48:10;;;;;;;;;17.75;16.00;;;;;14.36;62.35;99598.75;6093484;28;96551;-62
2022/10/27 01:51:14;;;;;;;;;19.50;18.50;;;;;14.29;61.62;99593.38;6092381;28;96415;-62
2022/10/27 01:54:20;;;;;;;;;23.00;20.40;;;;;14.19;59.99;99593.94;6092916;28;96514;-62
2022/10/27 01:57:30;;;;;;;;;23.00;21.00;;;;;13.98;58.37;99597.09;6092520;28;96308;-62
2022/10/27 02:00:43;;;;;;;;;22.50;20.75;;;;;13.72;57.98;99594.69;6091552;28;97478;-62
2022/10/27 02:03:58;;;;;;;;;23.80;22.20;;;;;13.45;58.11;99594.13;6085213;28;97667;-63
2022/10/27 02:07:09;;;;;;;;;23.50;23.00;;;;;13.26;58.46;99598.69;6092089;28;96111;-62
2022/10/27 02:10:18;;;;;;;;;27.60;24.00;;;;;13.12;58.87;99599.84;6091067;28;96531;-62
2022/10/27 02:13:23;;;;;;;;;22.40;20.40;;;;;13.16;61.17;99601.06;6092152;28;96529;-62
2022/10/27 02:16:30;;;;;;;;;21.20;20.00;;;;;13.24;62.38;99599.97;6092377;28;96316;-63
2022/10/27 02:19:37;;;;;;;;;22.40;20.60;;;;;13.30;62.19;99596.34;6096921;28;96600;-63
2022/10/27 02:22:43;;;;;;;;;23.00;20.00;;;;;13.31;61.78;99603.44;6089048;28;97689;-63
2022/10/27 02:25:56;;;;;;;;;20.60;20.60;;;;;13.23;59.58;99604.53;6091220;28;96348;-62
2022/10/27 02:29:03;;;;;;;;;21.50;20.50;;;;;13.13;58.89;99614.22;6087649;28;96772;-63
2022/10/27 02:32:11;;;;;;;;;24.40;23.00;;;;;13.01;58.38;99614.06;6079275;28;96488;-63
2022/10/27 02:35:17;;;;;;;;;26.40;25.00;;;;;12.83;58.47;99608.56;6076599;28;97901;-63
2022/10/27 02:38:21;;;;;;;;;23.40;22.00;;;;;12.73;58.98;99614.47;6053455;28;96661;-64
2022/10/27 02:41:25;;;;;;;;;20.40;20.40;;;;;12.75;59.82;99623.19;6075208;28;97758;-62
2022/10/27 02:44:29;;;;;;;;;22.25;20.50;;;;;12.80;60.14;99622.53;6073036;28;96307;-62
2022/10/27 02:47:33;;;;;;;;;18.20;17.20;;;;;12.95;62.56;99625.78;6076687;28;96911;-62
2022/10/27 02:50:37;;;;;;;;;20.25;18.25;;;;;13.05;62.98;99622.59;6078566;28;97299;-61
2022/10/27 02:53:46;;;;;;;;;20.00;17.75;;;;;13.15;63.43;99628.34;6076484;28;96277;-62
2022/10/27 02:56:49;;;;;;;;;15.00;14.20;;;;;13.16;63.18;99627.28;6067901;28;96919;-63
2022/10/27 02:59:52;;;;;;;;;19.25;18.50;;;;;13.16;62.20;99630.84;6077829;28;97177;-62
2022/10/27 03:02:56;;;;;;;;;20.00;18.00;;;;;13.09;61.31;99619.22;6057486;28;97164;-62
2022/10/27 03:06:00;;;;;;;;;19.00;18.00;;;;;13.06;60.96;99640.47;6087553;28;96628;-61
2022/10/27 03:09:04;;;;;;;;;18.50;17.00;;;;;12.93;60.92;99641.41;6055542;28;96545;-63
2022/10/27 03:12:07;;;;;;;;;21.00;18.40;;;;;12.91;61.37;99648.88;6078085;28;96959;-62
2022/10/27 03:15:11;;;;;;;;;18.75;18.00;;;;;12.85;61.04;99636.25;6067659;28;96565;-62
2022/10/27 03:18:14;;;;;;;;;19.40;17.40;;;;;12.76;59.96;99651.06;6049256;28;97355;-62
2022/10/27 03:21:19;;;;;;;;;21.00;19.00;;;;;12.63;59.92;99661.97;6076276;28;96347;-62
2022/10/27 03:24:22;;;;;;;;;19.50;17.75;;;;;12.52;59.76;99655.34;6077148;28;96771;-63
2022/10/27 03:27:26;;;;;;;;;19.60;17.80;;;;;12.40;59.64;99652.50;6083741;28;97099;-62
2022/10/27 03:30:29;;;;;;;;;20.00;19.00;;;;;12.29;59.49;99661.28;6080111;28;96594;-66
2022/10/27 03:33:33;;;;;;;;;19.40;19.00;;;;;12.21;59.58;99668.81;6078412;28;96858;-62
2022/10/27 03:36:38;;;;;;;;;21.50;19.00;;;;;12.08;59.40;99667.78;6082423;28;97065;-62
2022/10/27 03:39:41;;;;;;;;;19.60;19.00;;;;;12.08;59.84;99680.47;6072996;28;96473;-61
2022/10/27 03:42:45;;;;;;;;;21.00;18.00;;;;;12.07;60.13;99676.13;6078239;28;97640;-62
2022/10/27 03:45:49;;;;;;;;;22.00;20.40;;;;;12.01;60.32;99674.28;6085190;28;97525;-62
2022/10/27 03:48:54;;;;;;;;;23.60;20.00;;;;;11.97;60.51;99673.84;6081353;28;98250;-62
2022/10/27 03:51:58;;;;;;;;;25.00;21.25;;;;;11.93;61.11;99669.06;6087067;28;96336;-61
2022/10/27 03:55:02;;;;;;;;;21.00;20.20;;;;;11.92;61.38;99675.56;6084947;28;96227;-62
2022/10/27 03:58:05;;;;;;;;;22.20;20.20;;;;;11.89;61.14;99675.94;6074236;28;97569;-62
2022/10/27 04:01:10;;;;;;;;;22.00;20.60;;;;;11.89;61.04;99671.38;6087201;28;97871;-62
2022/10/27 04:04:14;;;;;;;;;21.00;20.00;;;;;11.86;60.65;99687.19;6096064;28;96407;-62
2022/10/27 04:07:19;;;;;;;;;22.50;22.50;;;;;11.81;61.18;99674.31;6073240;28;96313;-62
2022/10/27 04:10:22;;;;;;;;;22.00;20.00;;;;;11.82;61.18;99675.97;6091942;28;96445;-62
2022/10/27 04:13:26;;;;;;;;;23.00;22.00;;;;;11.71;60.97;99663.91;6091329;28;96326;-62
2022/10/27 04:16:32;;;;;;;;;22.25;21.25;;;;;11.86;61.48;99679.91;6093501;28;96843;-61
2022/10/27 04:19:36;;;;;;;;;22.00;20.75;;;;;11.95;61.63;99680.53;6103850;28;98104;-62
2022/10/27 04:22:41;;;;;;;;;22.60;21.40;;;;;12.02;62.25;99678.66;6089029;28;96686;-62
2022/10/27 04:25:44;;;;;;;;;22.25;21.00;;;;;12.12;61.23;99687.94;6082726;28;97106;-62
2022/10/27 04:28:48;;;;;;;;;21.67;20.00;;;;;12.17;60.98;99681.09;6090053;28;97507;-62
2022/10/27 04:31:51;;;;;;;;;20.60;19.00;;;;;12.16;61.41;99682.97;6093512;28;96128;-62
2022/10/27 04:34:54;;;;;;;;;22.00;20.00;;;;;12.17;61.71;99686.50;6093124;28;96841;-66
2022/10/27 04:37:59;;;;;;;;;20.20;18.20;;;;;12.20;61.97;99683.38;6092507;28;96588;-61
2022/10/27 04:41:02;;;;;;;;;22.00;21.00;;;;;12.15;61.96;99676.72;6076857;28;96433;-62
2022/10/27 04:44:06;;;;;;;;;22.00;21.00;;;;;12.19;62.06;99679.00;6076968;28;96445;-62
2022/10/27 04:47:09;;;;;;;;;20.50;20.00;;;;;12.14;61.49;99668.81;6076823;28;96624;-62
2022/10/27 04:50:12;;;;;;;;;24.00;21.40;;;;;12.23;60.94;99682.94;6094177;28;96449;-62
2022/10/27 04:53:18;;;;;;;;;22.40;21.40;;;;;12.25;61.06;99683.56;6094403;28;96344;-61
2022/10/27 04:56:21;;;;;;;;;23.50;23.00;;;;;12.28;61.35;99691.22;6076308;28;96344;-61
2022/10/27 04:59:24;;;;;;;;;22.00;20.00;;;;;12.24;61.35;99690.00;6074196;28;98774;-63
2022/10/27 05:02:28;;;;;;;;;20.00;19.00;;;;;12.20;61.24;99691.47;6092139;28;96412;-62
2022/10/27 05:05:36;;;;;;;;;23.00;22.00;;;;;12.17;61.52;99689.22;6092560;28;96539;-62
2022/10/27 05:08:41;;;;;;;;;17.50;16.25;;;;;12.12;62.15;99698.75;6092450;28;96322;-61
2022/10/27 05:11:44;;;;;;;;;18.20;17.00;;;;;12.17;62.22;99700.03;6074040;28;97227;-62
2022/10/27 05:14:48;;;;;;;;;19.60;18.60;;;;;12.23;62.37;99702.69;6090033;28;96308;-62
2022/10/27 05:17:51;;;;;;;;;22.00;19.00;;;;;12.32;62.72;99704.13;6091449;28;96406;-62
2022/10/27 05:20:56;;;;;;;;;18.60;17.80;;;;;12.46;62.70;99713.03;6092928;28;96458;-61
2022/10/27 05:24:01;;;;;;;;;20.50;19.50;;;;;12.57;62.81;99706.94;6092812;28;96260;-62
2022/10/27 05:27:05;;;;;;;;;22.00;22.00;;;;;12.66;62.64;99715.66;6093261;28;96492;-63
2022/10/27 05:30:10;;;;;;;;;23.00;23.00;;;;;12.72;62.43;99717.47;6074057;28;96673;-62
2022/10/27 05:33:14;;;;;;;;;22.60;19.00;;;;;12.77;62.15;99720.38;6090683;28;96218;-61
2022/10/27 05:36:17;;;;;;;;;21.00;20.00;;;;;12.79;60.89;99732.66;6088748;28;96441;-63
2022/10/27 05:39:22;;;;;;;;;22.00;21.00;;;;;12.81;60.35;99735.13;6092298;28;96864;-63
2022/10/27 05:42:25;;;;;;;;;21.40;19.60;;;;;12.81;59.97;99732.41;6068758;28;97086;-61
2022/10/27 05:45:29;;;;;;;;;20.80;19.40;;;;;12.88;59.80;99730.53;6050774;28;96734;-62
2022/10/27 05:48:32;;;;;;;;;23.00;22.00;;;;;12.95;58.89;99732.13;6068940;28;96258;-61
2022/10/27 05:51:35;;;;;;;;;22.20;19.60;;;;;13.18;58.52;99739.75;6069425;28;97058;-62
2022/10/27 05:54:40;;;;;;;;;21.50;20.00;;;;;13.50;57.92;99743.28;6069753;28;96379;-62
2022/10/27 05:57:51;;;;;;;;;19.00;18.60;;;;;14.02;56.95;99744.75;6069204;28;96249;-63
2022/10/27 06:00:58;;;;;;;;;17.40;17.40;;;;;14.66;55.44;99748.88;6078496;28;96238;-61
2022/10/27 06:04:02;;;;;;;;;25.00;21.25;;;;;14.77;55.00;99753.53;6076078;28;98366;-62
2022/10/27 06:07:05;;;;;;;;;20.00;18.00;;;;;14.85;55.29;99757.84;6093562;28;96699;-62
2022/10/27 06:10:10;;;;;;;;;21.00;20.00;;;;;14.92;55.54;99764.81;6092347;28;96413;-62
2022/10/27 06:13:14;;;;;;;;;35.40;32.40;;;;;15.69;54.47;99770.44;6093086;28;96382;-62
2022/10/27 06:16:19;;;;;;;;;29.00;28.00;;;;;18.24;48.53;99776.22;6093351;28;96433;-62
2022/10/27 06:19:23;;;;;;;;;34.00;31.80;;;;;20.91;42.08;99786.38;6094502;28;96399;-62
2022/10/27 06:22:26;;;;;;;;;23.00;22.00;;;;;23.23;36.42;99788.31;6094492;28;96484;-62
2022/10/27 06:25:31;;;;;;;;;26.75;25.25;;;;;25.33;33.41;99795.28;6099099;28;96998;-62
2022/10/27 06:28:34;;;;;;;;;24.67;23.00;;;;;27.06;30.41;99792.13;6118475;28;96298;-63
2022/10/27 06:31:40;;;;;;;;;25.00;22.40;;;;;28.64;27.69;99800.28;6104029;28;96309;-61
2022/10/27 06:34:43;;;;;;;;;22.25;20.00;;;;;30.11;26.22;99805.91;6076503;28;98449;-62
2022/10/27 06:37:47;;;;;;;;;17.75;17.00;;;;;30.79;24.84;99798.56;6093980;28;96306;-61
2022/10/27 06:40:52;;;;;;;;;16.40;15.60;;;;;30.55;25.03;99807.50;6094112;28;96883;-60
2022/10/27 06:43:55;;;;;;;;;13.60;13.00;;;;;29.28;26.38;99807.91;6076886;28;96853;-60
2022/10/27 06:46:58;;;;;;;;;15.00;13.00;;;;;27.86;28.60;99801.72;6093771;28;96315;-60
2022/10/27 06:50:02;;;;;;;;;17.00;16.00;;;;;26.64;29.90;99804.25;6076769;28;96783;-63
2022/10/27 06:53:05;;;;;;;;;14.80;13.80;;;;;25.66;31.68;99810.84;6061437;28;96710;-65
2022/10/27 06:56:10;;;;;;;;;15.00;14.60;;;;;25.93;31.45;99809.34;6077644;28;96344;-63
2022/10/27 06:59:13;;;;;;;;;14.00;13.20;;;;;25.97;31.77;99807.63;6078219;28;96983;-63
2022/10/27 07:02:17;;;;;;;;;12.00;12.00;;;;;26.19;31.47;99808.63;6094725;28;96361;-61
2022/10/27 07:05:20;;;;;;;;;9.00;9.00;;;;;26.08;31.60;99803.59;6094838;28;96241;-60
2022/10/27 07:08:24;;;;;;;;;12.00;11.00;;;;;25.45;32.45;99817.78;6095018;28;96120;-62
2022/10/27 07:11:28;;;;;;;;;10.25;10.00;;;;;24.82;33.37;99800.59;6094631;28;96284;-63
2022/10/27 07:14:32;;;;;;;;;11.00;10.00;;;;;25.54;33.18;99826.19;6095317;28;96434;-63
2022/10/27 07:17:35;;;;;;;;;11.00;10.00;;;;;28.10;29.85;99816.09;6105086;28;96362;-63
2022/10/27 07:20:39;;;;;;;;;11.00;10.40;;;;;30.93;25.78;99834.56;6118391;28;96276;-64
2022/10/27 07:23:42;;;;;;;;;12.20;11.20;;;;;33.12;23.30;99833.78;6119013;28;96312;-62
2022/10/27 07:26:47;;;;;;;;;10.00;9.25;;;;;34.82;21.16;99836.16;6104124;28;97061;-62
2022/10/27 07:29:50;;;;;;;;;12.00;12.00;;;;;36.20;19.30;99847.91;6094417;28;96471;-64
2022/10/27 07:32:58;;;;;;;;;11.00;11.00;;;;;37.36;18.67;99842.84;6095645;28;96665;-64
2022/10/27 07:36:01;;;;;;;;;11.25;10.00;;;;;38.44;17.37;99853.25;6095907;28;96849;-62
2022/10/27 07:39:05;;;;;;;;;10.00;10.00;;;;;39.31;16.50;99848.06;6095782;28;96330;-63
2022/10/27 07:42:10;;;;;;;;;11.00;10.40;;;;;40.10;15.64;99847.38;6097863;28;96848;-62
2022/10/27 07:45:15;;;;;;;;;12.40;11.00;;;;;40.55;15.67;99860.09;6081486;28;96860;-64
2022/10/27 07:48:19;;;;;;;;;9.40;9.40;;;;;40.92;14.90;99857.75;6081992;28;96321;-62
2022/10/27 07:51:22;;;;;;;;;10.00;10.00;;;;;41.26;14.90;99863.84;6082588;28;96504;-63
2022/10/27 07:54:25;;;;;;;;;11.20;10.00;;;;;41.72;14.54;99863.03;6099414;28;98191;-62
2022/10/27 07:57:30;;;;;;;;;12.40;11.40;;;;;41.83;14.08;99858.97;6082187;28;98427;-63
2022/10/27 08:00:36;;;;;;;;;10.00;9.00;;;;;42.19;13.99;99858.84;6099491;28;96344;-62
2022/10/27 08:03:39;;;;;;;;;12.00;11.00;;;;;42.27;14.02;99858.44;6082225;28;96675;-63
2022/10/27 08:06:43;;;;;;;;;11.00;11.00;;;;;42.52;13.59;99860.34;6099309;28;96323;-65
2022/10/27 08:09:46;;;;;;;;;12.80;12.40;;;;;42.64;12.98;99860.66;6099429;28;96727;-62
2022/10/27 08:12:51;;;;;;;;;13.40;12.40;;;;;42.87;13.22;99857.28;6082432;28;96581;-62
2022/10/27 08:15:58;;;;;;;;;11.40;11.00;;;;;43.03;13.43;99862.44;6099294;28;96453;-62
2022/10/27 08:19:01;;;;;;;;;11.00;11.00;;;;;43.18;12.94;99861.13;6099953;28;96354;-62
2022/10/27 08:22:05;;;;;;;;;9.25;8.00;;;;;43.16;13.29;99861.53;6099544;28;96331;-62
2022/10/27 08:25:15;;;;;;;;;9.80;9.00;;;;;43.54;12.79;99865.28;6099715;28;96845;-63
2022/10/27 08:28:20;;;;;;;;;8.60;8.60;;;;;43.53;12.56;99872.19;6099264;28;96684;-63
2022/10/27 08:31:24;;;;;;;;;8.40;7.20;;;;;43.52;12.67;99873.41;6082100;28;96565;-63
2022/10/27 08:34:27;;;;;;;;;9.00;8.00;;;;;43.72;12.80;99887.84;6083255;28;96824;-63
2022/10/27 08:37:31;;;;;;;;;7.00;6.60;;;;;44.04;12.23;99876.13;6098467;28;96323;-62
2022/10/27 08:40:43;;;;;;;;;10.20;9.00;;;;;43.94;12.63;99877.84;6098610;28;96282;-63
2022/10/27 08:44:20;;;;;;;;;9.25;9.00;;;;;44.08;12.81;99871.22;6098897;28;96382;-63
2022/10/27 08:47:26;;;;;;;;;9.00;9.00;;;;;44.12;12.50;99879.69;6097642;28;96335;-62
2022/10/27 08:50:38;;;;;;;;;7.00;6.60;;;;;44.31;12.22;99870.56;6098494;28;96143;-63
2022/10/27 08:53:46;;;;;;;;;8.00;7.00;;;;;44.55;12.18;99872.25;6098101;28;96519;-64
2022/10/27 08:56:50;;;;;;;;;8.00;7.33;;;;;44.95;11.91;99879.00;6098861;28;96444;-65
2022/10/27 08:59:56;;;;;;;;;10.00;8.00;;;;;45.14;12.18;99875.47;6098057;28;96283;-63
2022/10/27 09:03:36;;;;;;;;;7.60;7.00;;;;;45.02;11.79;99866.66;6099155;28;96432;-63
2022/10/27 09:06:50;;;;;;;;;11.00;9.00;;;;;45.12;12.43;99866.53;6080550;28;98957;-65
2022/10/27 09:09:56;;;;;;;;;7.00;7.00;;;;;45.07;11.95;99866.22;6097857;28;96891;-63
2022/10/27 09:13:06;;;;;;;;;9.00;8.00;;;;;45.13;11.89;99876.69;6101442;28;96296;-62
2022/10/27 09:16:16;;;;;;;;;10.60;9.60;;;;;45.01;11.58;99873.63;6121951;28;96461;-63
2022/10/27 09:19:26;;;;;;;;;7.60;7.60;;;;;44.78;12.01;99869.50;6121909;28;96389;-65
2022/10/27 09:22:32;;;;;;;;;10.60;10.00;;;;;44.77;12.17;99873.56;6120645;28;97421;-63
2022/10/27 09:25:38;;;;;;;;;10.00;9.00;;;;;44.74;12.04;99882.16;6097291;28;96743;-62
2022/10/27 09:28:45;;;;;;;;;9.00;9.00;;;;;44.69;12.24;99888.31;6097576;28;96384;-64
2022/10/27 09:31:54;;;;;;;;;9.00;9.00;;;;;44.85;11.81;99886.47;6079876;28;96321;-69
2022/10/27 09:35:01;;;;;;;;;10.00;9.00;;;;;44.74;12.24;99893.53;6097396;28;96265;-65
2022/10/27 09:38:11;;;;;;;;;9.00;8.00;;;;;44.25;12.33;99880.75;6096918;28;96431;-65
2022/10/27 09:41:15;;;;;;;;;8.00;8.00;;;;;44.31;12.92;99885.56;6097175;28;97022;-65
2022/10/27 09:44:21;;;;;;;;;11.00;11.00;;;;;44.08;12.76;99882.59;6097134;28;96400;-63
2022/10/27 09:47:36;;;;;;;;;10.00;9.60;;;;;44.19;12.54;99880.41;6079288;28;96998;-65
2022/10/27 09:50:45;;;;;;;;;8.00;8.00;;;;;44.19;12.76;99880.41;6095012;28;96557;-63
2022/10/27 09:53:51;;;;;;;;;9.00;8.00;;;;;43.92;13.18;99880.34;6097889;28;97072;-65
2022/10/27 09:56:56;;;;;;;;;12.00;11.00;;;;;43.85;13.29;99886.06;6097548;28;96471;-66
2022/10/27 10:00:02;;;;;;;;;11.00;9.00;;;;;43.98;13.45;99884.34;6098019;28;96865;-63
2022/10/27 10:03:20;;;;;;;;;10.40;10.40;;;;;43.92;13.07;99873.84;6097843;28;96473;-63
2022/10/27 10:06:28;;;;;;;;;11.00;9.60;;;;;43.91;13.57;99889.28;6097786;28;96513;-63
2022/10/27 10:09:33;;;;;;;;;11.00;10.00;;;;;44.11;12.73;99883.75;6097082;28;96979;-64
2022/10/27 10:12:36;;;;;;;;;11.00;10.00;;;;;44.23;13.25;99880.38;6097100;28;96625;-65
2022/10/27 10:15:42;;;;;;;;;10.50;10.50;;;;;44.35;13.02;99880.63;6096772;28;96294;-62
2022/10/27 10:19:02;;;;;;;;;11.00;10.00;;;;;44.29;13.01;99870.97;6097165;28;96444;-63
2022/10/27 10:22:05;;;;;;;;;11.00;10.00;;;;;44.27;12.74;99876.28;6079510;28;97301;-62
2022/10/27 10:25:27;;;;;;;;;10.20;9.20;;;;;44.29;13.16;99881.53;6079823;28;96462;-64
2022/10/27 10:28:36;;;;;;;;;12.00;12.00;;;;;44.20;12.73;99872.69;6096632;28;97900;-64
2022/10/27 10:31:39;;;;;;;;;10.80;10.40;;;;;44.33;13.00;99876.59;6097828;28;96322;-63
2022/10/27 10:34:46;;;;;;;;;12.40;12.00;;;;;44.81;12.17;99865.81;6097438;28;96526;-63
2022/10/27 10:37:50;;;;;;;;;11.00;10.25;;;;;43.75;13.35;99869.94;6098097;28;96537;-63
2022/10/27 10:41:00;;;;;;;;;11.00;10.00;;;;;41.99;14.59;99861.34;6098923;28;96313;-63
2022/10/27 10:44:09;;;;;;;;;11.60;11.00;;;;;40.32;15.53;99842.66;6100385;28;96139;-63
2022/10/27 10:47:23;;;;;;;;;12.40;10.00;;;;;39.22;16.80;99858.88;6099199;28;96531;-62
2022/10/27 10:50:29;;;;;;;;;11.60;10.60;;;;;38.43;17.76;99842.31;6098577;28;96286;-64
2022/10/27 10:53:37;;;;;;;;;10.00;10.00;;;;;37.99;18.18;99836.56;6103771;28;96288;-62
2022/10/27 10:56:41;;;;;;;;;10.00;10.00;;;;;38.26;18.12;99849.41;6100342;28;97379;-65
2022/10/27 10:59:45;;;;;;;;;9.00;8.80;;;;;38.57;17.38;99848.16;6097009;28;96271;-66
2022/10/27 11:02:55;;;;;;;;;10.00;8.00;;;;;38.44;17.41;99847.63;6096278;28;96271;-66
2022/10/27 11:06:05;;;;;;;;;10.00;9.40;;;;;39.19;17.42;99854.03;6078621;28;98428;-67
2022/10/27 11:09:12;;;;;;;;;7.00;7.00;;;;;39.71;16.90;99852.78;6094242;28;96413;-66
2022/10/27 11:12:25;;;;;;;;;7.80;7.00;;;;;40.24;16.19;99844.63;6095615;28;96471;-65
2022/10/27 11:15:32;;;;;;;;;8.00;7.00;;;;;40.76;16.03;99848.06;6097221;28;96331;-63
2022/10/27 11:18:45;;;;;;;;;8.00;7.00;;;;;41.05;15.63;99849.72;6097446;28;96220;-65
2022/10/27 11:21:58;;;;;;;;;5.00;5.00;;;;;41.05;15.32;99847.69;6097496;28;96265;-65
2022/10/27 11:25:11;;;;;;;;;6.00;6.00;;;;;41.15;15.55;99845.28;6099120;28;96329;-66
2022/10/27 11:28:21;;;;;;;;;8.80;8.00;;;;;41.29;15.13;99850.94;6084626;28;96499;-66
2022/10/27 11:31:36;;;;;;;;;8.00;7.60;;;;;41.51;15.21;99841.22;6080546;28;96321;-64
2022/10/27 11:34:53;;;;;;;;;6.20;6.00;;;;;41.71;14.89;99839.56;6081567;28;96626;-65
2022/10/27 11:38:11;;;;;;;;;6.60;6.60;;;;;41.71;15.23;99838.75;6066653;28;96275;-66
2022/10/27 11:41:24;;;;;;;;;6.00;5.00;;;;;41.65;14.96;99834.72;6082633;28;96164;-66
2022/10/27 11:44:38;;;;;;;;;7.00;7.00;;;;;41.59;15.49;99836.38;6062727;28;96978;-65
2022/10/27 11:47:47;;;;;;;;;7.50;7.50;;;;;41.62;14.82;99839.19;6074946;28;96505;-65
2022/10/27 11:50:55;;;;;;;;;7.00;7.00;;;;;41.66;14.96;99834.31;6080927;28;96749;-65
2022/10/27 11:54:00;;;;;;;;;8.00;7.00;;;;;41.79;15.11;99831.84;6085077;28;96702;-65
2022/10/27 11:57:20;;;;;;;;;7.00;6.00;;;;;41.68;15.46;99834.72;6082934;28;96597;-67
2022/10/27 12:00:54;;;;;;;;;6.00;6.00;;;;;41.54;14.84;99822.63;6080665;28;96618;-69
2022/10/27 12:04:11;;;;;;;;;7.20;7.00;;;;;41.38;15.00;99820.19;6085195;28;96888;-66
2022/10/27 12:07:34;;;;;;;;;7.60;7.40;;;;;41.18;15.31;99822.63;6073350;28;96774;-66
2022/10/27 12:10:56;;;;;;;;;6.00;6.00;;;;;40.70;15.52;99810.06;6072726;28;96820;-65
2022/10/27 12:14:08;;;;;;;;;7.00;7.00;;;;;40.05;16.29;99811.03;6071080;28;96242;-65
2022/10/27 12:17:20;;;;;;;;;9.00;8.00;;;;;39.15;16.53;99808.03;6087396;28;96357;-65
2022/10/27 12:20:31;;;;;;;;;6.00;6.00;;;;;38.43;17.03;99811.34;6095174;28;96525;-66
2022/10/27 12:23:41;;;;;;;;;7.00;6.00;;;;;37.61;17.92;99809.47;6095583;28;96568;-66
2022/10/27 12:26:50;;;;;;;;;7.00;6.60;;;;;36.87;18.63;99809.88;6082930;28;96574;-65
2022/10/27 12:29:59;;;;;;;;;7.00;7.00;;;;;36.38;19.17;99803.31;6075724;28;96596;-66
2022/10/27 12:33:09;;;;;;;;;5.00;5.00;;;;;35.80;19.40;99797.72;6093478;28;96437;-66
2022/10/27 12:36:20;;;;;;;;;6.00;6.00;;;;;35.42;19.62;99809.66;6087373;28;96282;-65
2022/10/27 12:39:31;;;;;;;;;8.00;7.00;;;;;35.08;20.35;99810.41;6093788;28;96585;-65
2022/10/27 12:42:46;;;;;;;;;7.00;6.00;;;;;34.66;20.93;99812.88;6099508;28;97233;-65
2022/10/27 12:46:04;;;;;;;;;8.00;7.00;;;;;34.41;21.40;99805.78;6083501;28;96729;-65
2022/10/27 12:49:17;;;;;;;;;7.00;7.00;;;;;34.07;21.77;99798.81;6100857;28;96357;-65
2022/10/27 12:52:23;;;;;;;;;8.00;7.40;;;;;33.86;22.01;99804.63;6096831;28;97024;-65
2022/10/27 12:55:43;;;;;;;;;7.25;7.25;;;;;33.61;22.07;99800.22;6098725;28;96467;-67
2022/10/27 12:58:55;;;;;;;;;7.00;7.00;;;;;33.38;22.65;99806.31;6100821;28;96943;-67
2022/10/27 13:02:02;;;;;;;;;8.25;7.25;;;;;33.19;22.24;99799.69;6087311;28;96580;-66
2022/10/27 13:05:38;;;;;;;;;6.60;5.00;;;;;32.96;22.75;99807.69;6105597;28;96361;-67
2022/10/27 13:09:10;;;;;;;;;8.00;7.00;;;;;32.85;22.96;99804.53;6091978;28;96339;-67
2022/10/27 13:12:29;;;;;;;;;7.00;7.00;;;;;32.62;23.43;99803.31;6083245;28;96528;-66
2022/10/27 13:15:55;;;;;;;;;7.60;7.00;;;;;32.34;23.24;99802.31;6093559;28;97201;-66
2022/10/27 13:19:41;;;;;;;;;7.00;6.00;;;;;32.02;23.96;99807.50;6100611;28;96384;-66
2022/10/27 13:22:53;;;;;;;;;8.00;7.00;;;;;31.75;24.38;99797.75;6097233;28;96322;-65
2022/10/27 13:26:03;;;;;;;;;8.00;7.75;;;;;31.65;24.42;99802.91;6101356;28;96334;-65
2022/10/27 13:29:19;;;;;;;;;7.00;6.00;;;;;31.39;24.67;99803.88;6102994;28;96447;-66
2022/10/27 13:32:38;;;;;;;;;7.80;7.40;;;;;31.27;25.36;99808.53;6100313;28;96378;-64
2022/10/27 13:35:42;;;;;;;;;9.60;8.60;;;;;31.07;25.46;99810.13;6098373;28;96573;-65
2022/10/27 13:38:45;;;;;;;;;8.50;8.00;;;;;30.94;26.17;99791.63;6099190;28;98159;-64
2022/10/27 13:42:05;;;;;;;;;8.00;8.00;;;;;30.78;26.05;99794.16;6080838;28;96725;-65
2022/10/27 13:45:47;;;;;;;;;8.20;7.00;;;;;30.62;26.41;99789.47;6093895;28;96454;-67
2022/10/27 13:48:52;;;;;;;;;8.00;7.40;;;;;30.34;26.40;99797.38;6054160;28;96995;-65
2022/10/27 13:52:11;;;;;;;;;8.40;8.00;;;;;30.04;26.58;99799.22;6099774;28;96367;-65
2022/10/27 13:55:34;;;;;;;;;5.80;5.80;;;;;29.87;27.30;99793.63;6099218;28;96344;-65
2022/10/27 13:58:55;;;;;;;;;10.00;9.75;;;;;29.64;27.60;99793.81;6099870;28;96591;-65
2022/10/27 14:02:08;;;;;;;;;8.60;7.60;;;;;29.54;27.74;99802.44;6094055;28;96282;-66
2022/10/27 14:05:25;;;;;;;;;9.00;9.00;;;;;29.37;28.08;99801.63;6098822;28;97046;-64
2022/10/27 14:08:31;;;;;;;;;9.00;8.00;;;;;29.21;28.36;99804.00;6088847;28;97199;-66
2022/10/27 14:11:34;;;;;;;;;8.20;8.00;;;;;29.03;28.84;99803.09;6098347;28;96382;-66
2022/10/27 14:14:40;;;;;;;;;9.00;9.00;;;;;28.81;29.04;99803.19;6093938;28;96581;-64
2022/10/27 14:17:46;;;;;;;;;9.00;8.00;;;;;28.57;29.37;99800.78;6098566;28;96394;-65
2022/10/27 14:20:53;;;;;;;;;8.20;8.00;;;;;28.20;29.94;99784.56;6095758;28;96420;-67
2022/10/27 14:24:03;;;;;;;;;10.40;10.00;;;;;28.01;30.17;99806.88;6094111;28;96875;-65
2022/10/27 14:27:06;;;;;;;;;9.00;8.50;;;;;27.71;30.78;99811.19;6080971;28;97003;-64
2022/10/27 14:30:16;;;;;;;;;8.00;7.00;;;;;27.48;31.53;99813.09;6099881;28;96335;-65